createdAt,value
2018-11-11T00:00:30.409Z,1.70
2018-11-11T00:01:30.387Z,1.70
2018-11-11T00:02:30.362Z,1.70
2018-11-11T00:03:30.403Z,1.70
2018-11-11T00:04:30.379Z,1.50
2018-11-11T00:05:30.325Z,1.60
2018-11-11T00:06:30.394Z,1.50
2018-11-11T00:07:30.313Z,1.50
2018-11-11T00:08:30.294Z,1.90
2018-11-11T00:09:30.352Z,1.50
2018-11-11T00:10:30.266Z,1.60
2018-11-11T00:11:30.273Z,1.60
2018-11-11T00:12:30.261Z,1.70
2018-11-11T00:13:30.235Z,1.60
2018-11-11T00:14:30.233Z,1.60
2018-11-11T00:15:30.376Z,1.50
2018-11-11T00:16:30.256Z,1.60
2018-11-11T00:17:30.192Z,1.60
2018-11-11T00:18:30.190Z,1.60
2018-11-11T00:19:30.168Z,1.60
2018-11-11T00:20:30.159Z,1.90
2018-11-11T00:21:30.197Z,1.80
2018-11-11T00:22:30.143Z,1.70
2018-11-11T00:23:30.123Z,1.50
2018-11-11T00:24:30.112Z,1.50
2018-11-11T00:25:30.117Z,2.00
2018-11-11T00:26:30.138Z,1.60
2018-11-11T00:27:30.109Z,1.50
2018-11-11T00:28:30.124Z,1.70
2018-11-11T00:29:30.061Z,1.50
2018-11-11T00:30:30.050Z,1.50
2018-11-11T00:31:30.045Z,1.60
2018-11-11T00:32:30.060Z,1.40
2018-11-11T00:33:30.063Z,1.60
2018-11-11T00:34:30.034Z,1.60
2018-11-11T00:35:29.990Z,1.80
2018-11-11T00:36:29.993Z,1.50
2018-11-11T00:37:29.999Z,1.70
2018-11-11T00:38:29.957Z,1.60
2018-11-11T00:39:30.017Z,1.70
2018-11-11T00:40:30.021Z,1.70
2018-11-11T00:41:30.004Z,1.70
2018-11-11T00:42:29.933Z,1.60
2018-11-11T00:43:29.903Z,1.50
2018-11-11T00:44:29.891Z,1.60
2018-11-11T00:45:29.940Z,1.40
2018-11-11T00:46:29.871Z,1.60
2018-11-11T00:47:29.954Z,1.20
2018-11-11T00:48:29.929Z,1.60
2018-11-11T00:49:30.244Z,2.10
2018-11-11T00:50:29.976Z,2.10
2018-11-11T00:52:46.075Z,1.50
2018-11-11T00:53:45.983Z,1.50
2018-11-11T00:54:45.998Z,1.90
2018-11-11T00:55:45.962Z,1.70
2018-11-11T00:56:46.031Z,1.80
2018-11-11T00:57:46.010Z,1.70
2018-11-11T00:58:45.973Z,1.80
2018-11-11T00:59:45.940Z,1.40
2018-11-11T01:00:46.018Z,1.70
2018-11-11T01:01:45.928Z,1.70
2018-11-11T01:02:45.945Z,1.60
2018-11-11T01:03:45.898Z,1.80
2018-11-11T01:04:45.878Z,1.70
2018-11-11T01:05:45.875Z,1.80
2018-11-11T01:06:45.844Z,1.70
2018-11-11T01:07:45.875Z,1.60
2018-11-11T01:08:45.837Z,1.40
2018-11-11T01:09:45.835Z,1.60
2018-11-11T01:10:45.810Z,1.50
2018-11-11T01:11:45.859Z,1.70
2018-11-11T01:12:45.820Z,1.60
2018-11-11T01:13:45.803Z,1.70
2018-11-11T01:14:45.788Z,1.50
2018-11-11T01:15:45.746Z,1.50
2018-11-11T01:16:45.730Z,1.40
2018-11-11T01:17:45.812Z,1.80
2018-11-11T01:18:45.741Z,1.90
2018-11-11T01:19:45.701Z,1.40
2018-11-11T01:20:45.687Z,1.70
2018-11-11T01:21:45.681Z,1.70
2018-11-11T01:22:45.718Z,1.60
2018-11-11T01:23:45.654Z,1.50
2018-11-11T01:24:45.649Z,1.50
2018-11-11T01:25:45.644Z,1.70
2018-11-11T01:26:45.640Z,1.50
2018-11-11T01:27:45.647Z,1.50
2018-11-11T01:28:45.641Z,2.00
2018-11-11T01:29:45.601Z,1.40
2018-11-11T01:30:45.615Z,1.60
2018-11-11T01:31:45.579Z,1.70
2018-11-11T01:32:45.633Z,1.60
2018-11-11T01:33:45.547Z,1.50
2018-11-11T01:34:45.569Z,1.50
2018-11-11T01:35:45.547Z,1.50
2018-11-11T01:36:45.531Z,1.60
2018-11-11T01:37:45.542Z,1.60
2018-11-11T01:38:45.554Z,1.70
2018-11-11T01:39:45.501Z,1.60
2018-11-11T01:40:45.489Z,1.60
2018-11-11T01:41:45.455Z,1.60
2018-11-11T01:42:45.469Z,1.40
2018-11-11T01:43:45.496Z,1.60
2018-11-11T01:44:45.428Z,1.40
2018-11-11T01:45:45.429Z,1.50
2018-11-11T01:46:45.425Z,1.60
2018-11-11T01:47:45.411Z,1.40
2018-11-11T01:48:45.421Z,1.50
2018-11-11T01:49:45.367Z,1.50
2018-11-11T01:50:45.365Z,1.50
2018-11-11T01:51:45.371Z,1.60
2018-11-11T01:52:45.352Z,1.80
2018-11-11T01:53:45.349Z,1.50
2018-11-11T01:54:45.349Z,1.70
2018-11-11T01:55:45.300Z,1.70
2018-11-11T01:56:45.291Z,1.70
2018-11-11T01:57:45.321Z,1.30
2018-11-11T01:58:45.297Z,1.50
2018-11-11T01:59:45.335Z,1.60
2018-11-11T02:00:45.262Z,1.50
2018-11-11T02:01:45.258Z,1.60
2018-11-11T02:02:45.275Z,1.30
2018-11-11T02:03:45.253Z,1.40
2018-11-11T02:04:45.246Z,1.50
2018-11-11T02:05:45.200Z,1.50
2018-11-11T02:06:45.185Z,1.70
2018-11-11T02:07:45.196Z,1.60
2018-11-11T02:08:45.175Z,1.60
2018-11-11T02:09:45.222Z,1.70
2018-11-11T02:10:45.133Z,1.50
2018-11-11T02:11:45.192Z,1.80
2018-11-11T02:12:45.119Z,1.40
2018-11-11T02:13:45.102Z,1.50
2018-11-11T02:14:45.116Z,1.80
2018-11-11T02:15:45.116Z,1.60
2018-11-11T02:16:45.068Z,1.60
2018-11-11T02:17:45.063Z,1.60
2018-11-11T02:18:53.894Z,1.80
2018-11-11T02:19:54.850Z,1.50
2018-11-11T02:20:52.788Z,1.90
2018-11-11T02:21:52.631Z,1.50
2018-11-11T02:22:52.596Z,1.60
2018-11-11T02:23:52.637Z,1.60
2018-11-11T02:24:53.620Z,1.50
2018-11-11T02:25:54.015Z,1.30
2018-11-11T02:26:52.617Z,1.50
2018-11-11T02:27:44.964Z,1.30
2018-11-11T02:28:52.523Z,1.60
2018-11-11T02:29:52.034Z,1.80
2018-11-11T02:30:54.628Z,2.00
2018-11-11T02:31:53.559Z,1.70
2018-11-11T02:32:53.487Z,1.50
2018-11-11T02:33:44.896Z,1.60
2018-11-11T02:34:52.449Z,1.50
2018-11-11T02:35:54.622Z,1.50
2018-11-11T02:36:52.505Z,1.50
2018-11-11T02:37:52.459Z,1.50
2018-11-11T02:38:52.558Z,1.40
2018-11-11T02:39:52.465Z,1.60
2018-11-11T02:40:53.771Z,1.40
2018-11-11T02:41:53.661Z,1.50
2018-11-11T02:42:44.886Z,1.50
2018-11-11T02:45:02.619Z,1.00
2018-11-11T02:47:35.009Z,1.10
2018-11-11T02:49:44.238Z,1.80
2018-11-11T02:50:44.233Z,1.30
2018-11-11T02:51:44.224Z,1.30
2018-11-11T02:52:44.176Z,1.50
2018-11-11T02:53:44.176Z,1.60
2018-11-11T02:54:44.157Z,1.30
2018-11-11T02:55:44.182Z,1.50
2018-11-11T02:56:44.150Z,1.50
2018-11-11T02:57:44.109Z,1.70
2018-11-11T02:58:44.100Z,1.60
2018-11-11T02:59:52.656Z,1.40
2018-11-11T03:00:44.105Z,1.60
2018-11-11T03:01:44.107Z,1.30
2018-11-11T03:02:44.080Z,1.60
2018-11-11T03:03:44.101Z,1.70
2018-11-11T03:04:44.041Z,1.50
2018-11-11T03:05:44.031Z,1.90
2018-11-11T03:06:44.020Z,1.80
2018-11-11T03:07:44.030Z,1.80
2018-11-11T03:08:43.988Z,2.50
2018-11-11T03:09:43.981Z,1.90
2018-11-11T03:10:43.974Z,1.70
2018-11-11T03:11:43.975Z,1.90
2018-11-11T03:12:43.968Z,1.70
2018-11-11T03:13:43.934Z,1.70
2018-11-11T03:14:43.923Z,1.50
2018-11-11T03:15:43.913Z,1.50
2018-11-11T03:16:43.906Z,1.30
2018-11-11T03:17:43.919Z,1.30
2018-11-11T03:18:43.880Z,1.30
2018-11-11T03:19:43.869Z,1.20
2018-11-11T03:20:43.859Z,1.20
2018-11-11T03:21:43.848Z,1.30
2018-11-11T03:22:43.855Z,1.30
2018-11-11T03:23:43.844Z,1.20
2018-11-11T03:24:43.818Z,1.70
2018-11-11T03:25:43.815Z,1.30
2018-11-11T03:26:43.797Z,1.20
2018-11-11T03:27:43.799Z,1.20
2018-11-11T03:28:43.776Z,1.40
2018-11-11T03:29:43.758Z,1.20
2018-11-11T03:30:43.750Z,1.40
2018-11-11T03:31:43.749Z,1.30
2018-11-11T03:32:43.756Z,1.30
2018-11-11T03:33:43.724Z,1.40
2018-11-11T03:34:43.725Z,1.40
2018-11-11T03:35:43.695Z,1.70
2018-11-11T03:36:43.682Z,1.30
2018-11-11T03:37:43.697Z,1.20
2018-11-11T03:38:43.668Z,1.40
2018-11-11T03:39:43.657Z,1.20
2018-11-11T03:40:43.678Z,1.40
2018-11-11T03:41:43.632Z,1.10
2018-11-11T03:42:43.684Z,1.10
2018-11-11T03:43:43.613Z,1.40
2018-11-11T03:44:43.595Z,1.40
2018-11-11T03:45:43.630Z,1.40
2018-11-11T03:46:43.604Z,1.30
2018-11-11T03:47:43.607Z,1.20
2018-11-11T03:48:43.577Z,1.40
2018-11-11T03:49:43.553Z,1.10
2018-11-11T03:50:43.530Z,1.70
2018-11-11T03:51:43.547Z,1.40
2018-11-11T03:52:43.532Z,1.10
2018-11-11T03:53:43.535Z,1.50
2018-11-11T03:54:43.503Z,1.10
2018-11-11T03:55:43.487Z,1.20
2018-11-11T03:56:43.475Z,1.40
2018-11-11T03:57:43.472Z,1.40
2018-11-11T03:58:43.468Z,1.40
2018-11-11T03:59:43.455Z,1.10
2018-11-11T04:00:43.458Z,1.40
2018-11-11T04:01:43.411Z,1.20
2018-11-11T04:02:43.418Z,1.30
2018-11-11T04:03:43.389Z,1.20
2018-11-11T04:04:43.377Z,1.00
2018-11-11T04:05:43.389Z,1.30
2018-11-11T04:06:43.358Z,1.30
2018-11-11T04:07:43.370Z,1.30
2018-11-11T04:08:43.361Z,1.30
2018-11-11T04:09:43.324Z,1.30
2018-11-11T04:10:43.311Z,1.20
2018-11-11T04:11:43.298Z,1.60
2018-11-11T04:12:43.310Z,1.40
2018-11-11T04:13:43.287Z,1.60
2018-11-11T04:14:43.275Z,1.20
2018-11-11T04:15:43.253Z,1.40
2018-11-11T04:16:43.244Z,1.40
2018-11-11T04:17:43.254Z,1.30
2018-11-11T04:18:43.233Z,1.30
2018-11-11T04:19:51.792Z,1.20
2018-11-11T04:20:43.203Z,1.30
2018-11-11T04:21:43.195Z,1.60
2018-11-11T04:22:43.202Z,1.20
2018-11-11T04:23:43.173Z,1.30
2018-11-11T04:24:43.181Z,1.00
2018-11-11T04:25:43.159Z,1.60
2018-11-11T04:26:43.142Z,1.20
2018-11-11T04:27:43.141Z,1.30
2018-11-11T04:28:43.115Z,1.20
2018-11-11T04:29:43.109Z,1.40
2018-11-11T04:30:43.092Z,1.00
2018-11-11T04:31:43.098Z,1.30
2018-11-11T04:32:43.089Z,1.70
2018-11-11T04:33:43.057Z,1.30
2018-11-11T04:34:43.050Z,1.50
2018-11-11T04:35:43.079Z,1.20
2018-11-11T04:36:43.028Z,1.20
2018-11-11T04:37:43.033Z,1.60
2018-11-11T04:38:43.018Z,1.30
2018-11-11T04:39:42.990Z,1.00
2018-11-11T04:40:42.981Z,1.10
2018-11-11T04:41:42.975Z,1.30
2018-11-11T04:42:43.024Z,1.30
2018-11-11T04:43:42.955Z,1.30
2018-11-11T04:44:42.937Z,1.30
2018-11-11T04:45:42.930Z,1.20
2018-11-11T04:46:42.916Z,1.10
2018-11-11T04:47:42.921Z,1.30
2018-11-11T04:48:42.892Z,1.40
2018-11-11T04:49:42.886Z,1.10
2018-11-11T04:50:42.873Z,1.10
2018-11-11T04:51:42.891Z,1.50
2018-11-11T04:52:42.888Z,0.80
2018-11-11T04:53:42.898Z,1.20
2018-11-11T04:54:42.832Z,1.50
2018-11-11T04:55:42.815Z,1.20
2018-11-11T04:56:42.813Z,1.10
2018-11-11T04:57:42.795Z,1.30
2018-11-11T04:58:42.801Z,1.40
2018-11-11T04:59:42.778Z,1.00
2018-11-11T05:00:42.771Z,1.30
2018-11-11T05:01:42.803Z,1.20
2018-11-11T05:02:42.763Z,1.30
2018-11-11T05:03:42.750Z,1.20
2018-11-11T05:04:42.805Z,1.40
2018-11-11T05:05:42.738Z,1.30
2018-11-11T05:06:42.694Z,1.50
2018-11-11T05:07:42.688Z,1.10
2018-11-11T05:08:42.728Z,1.10
2018-11-11T05:09:42.674Z,1.30
2018-11-11T05:10:42.651Z,1.20
2018-11-11T05:11:42.747Z,1.30
2018-11-11T05:12:42.650Z,1.60
2018-11-11T05:13:42.745Z,1.30
2018-11-11T05:14:42.628Z,1.20
2018-11-11T05:15:42.598Z,1.20
2018-11-11T05:16:42.611Z,1.40
2018-11-11T05:17:42.579Z,1.00
2018-11-11T05:18:42.653Z,1.20
2018-11-11T05:19:42.578Z,1.30
2018-11-11T05:20:42.560Z,1.20
2018-11-11T05:21:42.553Z,1.20
2018-11-11T05:22:42.516Z,1.30
2018-11-11T05:23:42.561Z,2.20
2018-11-11T05:24:42.554Z,1.40
2018-11-11T05:25:42.510Z,1.10
2018-11-11T05:26:42.474Z,1.20
2018-11-11T05:27:42.479Z,1.70
2018-11-11T05:28:42.482Z,1.30
2018-11-11T05:29:42.493Z,1.20
2018-11-11T05:30:42.467Z,1.00
2018-11-11T05:31:42.482Z,1.30
2018-11-11T05:32:42.499Z,1.20
2018-11-11T05:33:42.416Z,1.20
2018-11-11T05:34:42.423Z,1.10
2018-11-11T05:35:42.397Z,1.10
2018-11-11T05:36:42.399Z,1.40
2018-11-11T05:37:42.357Z,1.30
2018-11-11T05:38:42.340Z,1.40
2018-11-11T05:39:42.382Z,1.40
2018-11-11T05:40:42.335Z,1.30
2018-11-11T05:41:42.331Z,1.40
2018-11-11T05:42:42.310Z,1.40
2018-11-11T05:43:42.298Z,1.70
2018-11-11T05:44:42.366Z,1.20
2018-11-11T05:45:42.270Z,1.30
2018-11-11T05:46:42.253Z,1.10
2018-11-11T05:47:53.217Z,1.30
2018-11-11T05:48:42.239Z,1.20
2018-11-11T05:49:42.239Z,1.20
2018-11-11T05:50:42.207Z,1.10
2018-11-11T05:51:42.205Z,1.00
2018-11-11T05:52:42.194Z,1.30
2018-11-11T05:53:42.179Z,1.00
2018-11-11T05:54:42.190Z,1.20
2018-11-11T05:55:42.159Z,1.40
2018-11-11T05:56:42.150Z,1.40
2018-11-11T05:57:42.129Z,1.10
2018-11-11T05:58:42.131Z,1.10
2018-11-11T05:59:42.127Z,1.30
2018-11-11T06:00:42.101Z,1.30
2018-11-11T06:01:42.092Z,1.10
2018-11-11T06:02:42.075Z,1.20
2018-11-11T06:03:42.072Z,1.40
2018-11-11T06:04:42.070Z,1.30
2018-11-11T06:05:42.050Z,1.30
2018-11-11T06:06:42.029Z,1.40
2018-11-11T06:07:42.019Z,1.30
2018-11-11T06:08:42.012Z,1.30
2018-11-11T06:09:42.048Z,1.30
2018-11-11T06:10:42.010Z,1.40
2018-11-11T06:11:42.012Z,1.90
2018-11-11T06:12:41.982Z,1.50
2018-11-11T06:13:41.963Z,1.50
2018-11-11T06:14:41.981Z,1.20
2018-11-11T06:15:41.934Z,1.20
2018-11-11T06:16:42.044Z,1.20
2018-11-11T06:17:41.986Z,1.30
2018-11-11T06:18:41.908Z,1.20
2018-11-11T06:19:41.919Z,1.00
2018-11-11T06:20:42.030Z,1.10
2018-11-11T06:21:52.003Z,1.20
2018-11-11T06:22:41.869Z,1.00
2018-11-11T06:23:41.847Z,1.20
2018-11-11T06:24:41.904Z,1.40
2018-11-11T06:26:59.283Z,0.90
2018-11-11T06:27:59.259Z,1.20
2018-11-11T06:28:59.244Z,1.10
2018-11-11T06:29:59.252Z,1.00
2018-11-11T06:30:59.224Z,1.70
2018-11-11T06:31:59.214Z,1.10
2018-11-11T06:32:59.205Z,1.40
2018-11-11T06:33:59.226Z,1.40
2018-11-11T06:34:59.204Z,1.30
2018-11-11T06:35:59.171Z,1.30
2018-11-11T06:36:59.210Z,1.10
2018-11-11T06:37:59.150Z,1.10
2018-11-11T06:38:59.133Z,1.40
2018-11-11T06:39:59.194Z,1.00
2018-11-11T06:40:59.178Z,1.10
2018-11-11T06:41:59.324Z,1.40
2018-11-11T06:44:15.307Z,1.40
2018-11-11T06:45:15.291Z,1.40
2018-11-11T06:46:15.271Z,1.30
2018-11-11T06:47:22.800Z,1.50
2018-11-11T06:48:15.301Z,1.40
2018-11-11T06:49:15.224Z,1.20
2018-11-11T06:50:15.223Z,1.30
2018-11-11T06:51:15.228Z,1.30
2018-11-11T06:52:15.198Z,1.30
2018-11-11T06:53:15.181Z,1.30
2018-11-11T06:54:15.171Z,1.40
2018-11-11T06:55:15.163Z,1.30
2018-11-11T06:56:15.167Z,1.20
2018-11-11T06:57:15.141Z,1.20
2018-11-11T06:58:15.255Z,1.20
2018-11-11T06:59:15.118Z,1.40
2018-11-11T07:00:15.106Z,1.20
2018-11-11T07:02:37.935Z,0.90
2018-11-11T07:03:38.212Z,1.30
2018-11-11T07:04:37.909Z,1.20
2018-11-11T07:05:37.884Z,1.50
2018-11-11T07:06:37.897Z,1.30
2018-11-11T07:07:47.456Z,1.50
2018-11-11T07:08:37.859Z,1.60
2018-11-11T07:09:37.842Z,1.40
2018-11-11T07:10:37.842Z,1.50
2018-11-11T07:11:37.843Z,1.30
2018-11-11T07:12:37.822Z,1.30
2018-11-11T07:13:37.799Z,1.80
2018-11-11T07:14:37.787Z,1.20
2018-11-11T07:15:37.778Z,1.10
2018-11-11T07:16:37.833Z,1.30
2018-11-11T07:17:37.753Z,1.40
2018-11-11T07:18:37.744Z,1.40
2018-11-11T07:19:37.730Z,1.60
2018-11-11T07:20:37.721Z,1.40
2018-11-11T07:21:37.728Z,1.30
2018-11-11T07:22:37.700Z,1.40
2018-11-11T07:23:37.799Z,1.60
2018-11-11T07:24:37.689Z,1.50
2018-11-11T07:25:37.671Z,1.60
2018-11-11T07:26:37.694Z,1.40
2018-11-11T07:27:37.647Z,1.70
2018-11-11T07:28:37.633Z,1.60
2018-11-11T07:29:37.627Z,1.60
2018-11-11T07:30:37.681Z,1.60
2018-11-11T07:31:37.606Z,1.40
2018-11-11T07:32:37.617Z,1.60
2018-11-11T07:33:45.143Z,1.80
2018-11-11T07:34:37.564Z,1.50
2018-11-11T07:35:37.554Z,1.70
2018-11-11T07:36:37.588Z,1.30
2018-11-11T07:37:37.544Z,1.70
2018-11-11T07:38:37.549Z,1.50
2018-11-11T07:39:37.509Z,1.20
2018-11-11T07:40:37.536Z,1.50
2018-11-11T07:41:37.489Z,1.30
2018-11-11T07:42:37.501Z,1.20
2018-11-11T07:43:37.485Z,1.60
2018-11-11T07:44:37.456Z,1.50
2018-11-11T07:45:37.446Z,1.50
2018-11-11T07:46:37.488Z,1.50
2018-11-11T07:47:37.566Z,1.50
2018-11-11T07:48:37.469Z,1.50
2018-11-11T07:49:37.447Z,1.70
2018-11-11T07:50:45.013Z,2.10
2018-11-11T07:51:46.326Z,2.00
2018-11-11T07:52:47.337Z,2.10
2018-11-11T07:53:45.966Z,2.00
2018-11-11T07:54:37.412Z,2.10
2018-11-11T07:55:37.381Z,2.00
2018-11-11T07:56:37.378Z,1.90
2018-11-11T07:57:46.440Z,1.50
2018-11-11T07:58:37.414Z,1.40
2018-11-11T08:00:56.179Z,1.30
2018-11-11T08:01:56.256Z,1.20
2018-11-11T08:02:56.173Z,1.30
2018-11-11T08:03:56.101Z,1.50
2018-11-11T08:04:56.053Z,1.40
2018-11-11T08:05:56.200Z,1.50
2018-11-11T08:06:56.055Z,1.40
2018-11-11T08:07:56.224Z,1.70
2018-11-11T08:08:56.004Z,1.50
2018-11-11T08:09:55.993Z,1.40
2018-11-11T08:10:56.064Z,1.40
2018-11-11T08:11:55.997Z,1.60
2018-11-11T08:12:55.957Z,1.30
2018-11-11T08:14:03.544Z,1.50
2018-11-11T08:14:56.046Z,1.40
2018-11-11T08:15:56.006Z,1.80
2018-11-11T08:16:56.006Z,1.40
2018-11-11T08:17:55.899Z,1.40
2018-11-11T08:18:55.965Z,1.30
2018-11-11T08:19:55.902Z,1.30
2018-11-11T08:20:55.892Z,1.30
2018-11-11T08:21:55.917Z,1.30
2018-11-11T08:23:03.469Z,1.20
2018-11-11T08:23:55.905Z,1.30
2018-11-11T08:24:55.875Z,1.50
2018-11-11T08:26:03.478Z,1.50
2018-11-11T08:29:15.812Z,1.10
2018-11-11T08:31:24.622Z,1.20
2018-11-11T08:32:35.303Z,1.40
2018-11-11T08:33:33.415Z,1.20
2018-11-11T08:34:24.617Z,1.30
2018-11-11T08:35:32.071Z,1.10
2018-11-11T08:36:33.155Z,1.60
2018-11-11T08:37:32.017Z,1.50
2018-11-11T08:38:33.467Z,1.70
2018-11-11T08:39:24.499Z,2.00
2018-11-11T08:40:32.211Z,1.60
2018-11-11T08:41:32.088Z,1.90
2018-11-11T08:42:32.037Z,1.70
2018-11-11T08:43:34.266Z,2.00
2018-11-11T08:44:24.428Z,1.50
2018-11-11T08:45:24.397Z,1.80
2018-11-11T08:46:32.310Z,1.50
2018-11-11T08:47:24.417Z,1.10
2018-11-11T08:48:24.494Z,1.10
2018-11-11T08:49:24.407Z,1.60
2018-11-11T08:50:33.152Z,1.40
2018-11-11T08:51:24.362Z,1.70
2018-11-11T08:52:32.900Z,1.60
2018-11-11T08:53:34.219Z,1.70
2018-11-11T08:54:24.318Z,1.30
2018-11-11T08:55:24.303Z,1.60
2018-11-11T08:56:24.301Z,1.60
2018-11-11T08:57:24.332Z,1.60
2018-11-11T08:58:24.268Z,1.50
2018-11-11T08:59:24.239Z,1.80
2018-11-11T09:00:32.995Z,1.80
2018-11-11T09:01:24.315Z,2.10
2018-11-11T09:02:31.825Z,1.90
2018-11-11T09:03:24.260Z,2.00
2018-11-11T09:04:31.745Z,1.30
2018-11-11T09:05:31.742Z,1.80
2018-11-11T09:06:24.169Z,1.60
2018-11-11T09:08:34.550Z,2.10
2018-11-11T09:10:44.804Z,1.50
2018-11-11T09:13:01.561Z,1.90
2018-11-11T09:13:54.039Z,1.70
2018-11-11T09:14:53.995Z,1.80
2018-11-11T09:15:53.926Z,1.50
2018-11-11T09:16:53.935Z,1.40
2018-11-11T09:18:01.533Z,1.40
2018-11-11T09:19:02.251Z,1.80
2018-11-11T09:19:53.914Z,1.70
2018-11-11T09:20:53.888Z,1.80
2018-11-11T09:22:01.432Z,1.60
2018-11-11T09:22:53.921Z,1.70
2018-11-11T09:23:53.975Z,1.70
2018-11-11T09:25:01.418Z,2.20
2018-11-11T09:25:53.835Z,1.80
2018-11-11T09:27:01.437Z,1.70
2018-11-11T09:28:01.360Z,1.60
2018-11-11T09:29:02.384Z,1.70
2018-11-11T09:29:53.761Z,1.40
2018-11-11T09:30:53.752Z,1.70
2018-11-11T09:31:53.745Z,1.80
2018-11-11T09:32:53.747Z,1.70
2018-11-11T09:33:53.717Z,2.10
2018-11-11T09:34:53.739Z,1.90
2018-11-11T09:35:53.752Z,2.00
2018-11-11T09:36:53.721Z,2.00
2018-11-11T09:37:53.717Z,3.50
2018-11-11T09:38:53.713Z,2.40
2018-11-11T09:39:53.675Z,2.20
2018-11-11T09:40:53.645Z,2.40
2018-11-11T09:41:53.655Z,2.40
2018-11-11T09:42:53.690Z,2.40
2018-11-11T09:43:53.617Z,2.10
2018-11-11T09:44:53.634Z,2.20
2018-11-11T09:45:53.630Z,2.30
2018-11-11T09:46:53.590Z,2.10
2018-11-11T09:47:53.575Z,2.10
2018-11-11T09:48:53.594Z,2.30
2018-11-11T09:49:53.632Z,1.80
2018-11-11T09:50:53.538Z,1.90
2018-11-11T09:51:53.545Z,2.20
2018-11-11T09:52:53.551Z,2.50
2018-11-11T09:53:53.547Z,2.40
2018-11-11T09:54:53.497Z,2.50
2018-11-11T09:55:53.516Z,2.40
2018-11-11T09:56:53.487Z,2.30
2018-11-11T09:57:53.476Z,1.90
2018-11-11T09:58:53.453Z,1.50
2018-11-11T09:59:53.522Z,1.90
2018-11-11T10:00:53.452Z,2.10
2018-11-11T10:01:53.424Z,2.20
2018-11-11T10:02:53.415Z,2.50
2018-11-11T10:03:53.408Z,2.10
2018-11-11T10:04:53.473Z,2.30
2018-11-11T10:05:53.398Z,2.10
2018-11-11T10:06:53.413Z,1.90
2018-11-11T10:07:53.354Z,2.30
2018-11-11T10:08:53.352Z,2.30
2018-11-11T10:09:53.337Z,2.00
2018-11-11T10:10:53.381Z,1.70
2018-11-11T10:11:53.314Z,1.80
2018-11-11T10:12:53.358Z,2.10
2018-11-11T10:13:53.304Z,2.20
2018-11-11T10:14:53.287Z,2.30
2018-11-11T10:15:53.296Z,2.30
2018-11-11T10:16:53.288Z,1.90
2018-11-11T10:17:53.254Z,1.50
2018-11-11T10:18:53.239Z,2.90
2018-11-11T10:19:53.232Z,2.30
2018-11-11T10:20:53.263Z,2.40
2018-11-11T10:21:53.218Z,2.20
2018-11-11T10:22:53.196Z,2.20
2018-11-11T10:23:53.187Z,2.40
2018-11-11T10:24:53.172Z,2.10
2018-11-11T10:25:53.189Z,2.70
2018-11-11T10:26:53.159Z,2.40
2018-11-11T10:27:53.157Z,2.30
2018-11-11T10:28:53.132Z,2.10
2018-11-11T10:29:53.121Z,2.40
2018-11-11T10:30:53.135Z,1.70
2018-11-11T10:31:53.100Z,2.50
2018-11-11T10:32:53.087Z,2.60
2018-11-11T10:33:53.077Z,2.10
2018-11-11T10:34:53.065Z,2.30
2018-11-11T10:35:53.106Z,2.40
2018-11-11T10:36:53.040Z,2.20
2018-11-11T10:37:53.029Z,1.80
2018-11-11T10:38:53.030Z,1.90
2018-11-11T10:39:53.024Z,2.40
2018-11-11T10:40:53.019Z,2.30
2018-11-11T10:41:53.136Z,2.50
2018-11-11T10:42:52.975Z,2.50
2018-11-11T10:43:53.028Z,2.70
2018-11-11T10:44:52.967Z,3.00
2018-11-11T10:45:52.971Z,2.30
2018-11-11T10:46:52.934Z,2.00
2018-11-11T10:47:52.925Z,2.50
2018-11-11T10:48:52.922Z,2.70
2018-11-11T10:49:52.903Z,3.20
2018-11-11T10:50:52.897Z,2.60
2018-11-11T10:51:52.899Z,2.60
2018-11-11T10:52:52.871Z,2.20
2018-11-11T10:53:52.887Z,2.80
2018-11-11T10:54:52.852Z,3.20
2018-11-11T10:55:52.839Z,2.60
2018-11-11T10:56:52.879Z,3.00
2018-11-11T10:57:52.869Z,4.10
2018-11-11T10:58:52.810Z,3.70
2018-11-11T10:59:52.797Z,2.50
2018-11-11T11:01:03.372Z,2.80
2018-11-11T11:01:52.793Z,3.00
2018-11-11T11:02:52.761Z,3.20
2018-11-11T11:03:52.750Z,2.50
2018-11-11T11:04:52.740Z,2.60
2018-11-11T11:05:52.749Z,2.80
2018-11-11T11:06:52.750Z,3.00
2018-11-11T11:07:52.725Z,3.10
2018-11-11T11:08:52.949Z,3.70
2018-11-11T11:09:52.699Z,3.40
2018-11-11T11:10:52.681Z,2.80
2018-11-11T11:11:52.740Z,2.50
2018-11-11T11:12:52.685Z,1.90
2018-11-11T11:13:53.075Z,2.50
2018-11-11T11:14:52.633Z,2.80
2018-11-11T11:15:52.625Z,2.40
2018-11-11T11:16:52.715Z,2.80
2018-11-11T11:17:52.598Z,2.50
2018-11-11T11:18:52.635Z,2.50
2018-11-11T11:19:52.613Z,2.60
2018-11-11T11:20:52.564Z,2.80
2018-11-11T11:21:52.585Z,2.00
2018-11-11T11:22:52.599Z,2.80
2018-11-11T11:23:52.536Z,3.30
2018-11-11T11:24:52.531Z,2.90
2018-11-11T11:25:52.509Z,2.90
2018-11-11T11:26:52.519Z,2.70
2018-11-11T11:27:52.518Z,2.40
2018-11-11T11:28:52.500Z,2.80
2018-11-11T11:30:00.020Z,3.40
2018-11-11T11:30:52.463Z,2.50
2018-11-11T11:31:52.473Z,3.00
2018-11-11T11:32:52.433Z,2.60
2018-11-11T11:33:52.448Z,3.00
2018-11-11T11:34:52.414Z,3.20
2018-11-11T11:35:52.569Z,2.40
2018-11-11T11:36:52.386Z,2.00
2018-11-11T11:37:52.403Z,2.50
2018-11-11T11:38:52.377Z,3.20
2018-11-11T11:39:52.391Z,3.10
2018-11-11T11:40:52.345Z,3.30
2018-11-11T11:41:52.350Z,2.90
2018-11-11T11:42:52.360Z,3.50
2018-11-11T11:43:52.610Z,2.90
2018-11-11T11:44:52.440Z,2.30
2018-11-11T11:45:52.427Z,2.60
2018-11-11T11:46:52.942Z,3.30
2018-11-11T11:47:52.359Z,2.50
2018-11-11T11:48:52.326Z,2.50
2018-11-11T11:50:01.967Z,2.00
2018-11-11T11:50:52.435Z,2.10
2018-11-11T11:51:52.290Z,2.90
2018-11-11T11:52:52.274Z,2.90
2018-11-11T11:53:52.229Z,3.60
2018-11-11T11:54:52.183Z,3.30
2018-11-11T11:55:52.175Z,2.60
2018-11-11T11:56:52.165Z,2.70
2018-11-11T11:57:52.194Z,2.90
2018-11-11T11:58:52.157Z,2.30
2018-11-11T11:59:52.130Z,3.10
2018-11-11T12:00:52.131Z,2.90
2018-11-11T12:01:52.123Z,2.30
2018-11-11T12:02:52.097Z,2.80
2018-11-11T12:03:52.104Z,2.50
2018-11-11T12:04:52.080Z,2.70
2018-11-11T12:05:52.068Z,3.40
2018-11-11T12:06:52.056Z,3.70
2018-11-11T12:07:52.041Z,3.00
2018-11-11T12:08:52.173Z,2.80
2018-11-11T12:09:52.032Z,2.10
2018-11-11T12:10:52.015Z,2.40
2018-11-11T12:11:51.999Z,2.50
2018-11-11T12:12:51.988Z,2.70
2018-11-11T12:13:52.029Z,2.30
2018-11-11T12:14:51.968Z,3.40
2018-11-11T12:15:51.964Z,3.40
2018-11-11T12:16:51.951Z,3.50
2018-11-11T12:17:51.930Z,3.70
2018-11-11T12:18:51.927Z,3.80
2018-11-11T12:19:51.932Z,3.50
2018-11-11T12:20:51.902Z,2.80
2018-11-11T12:21:51.895Z,3.30
2018-11-11T12:22:51.874Z,3.80
2018-11-11T12:23:51.864Z,3.40
2018-11-11T12:24:51.872Z,3.90
2018-11-11T12:25:51.847Z,3.50
2018-11-11T12:26:51.841Z,3.70
2018-11-11T12:27:51.830Z,3.50
2018-11-11T12:28:51.807Z,4.10
2018-11-11T12:29:51.821Z,3.80
2018-11-11T12:30:51.868Z,3.90
2018-11-11T12:31:51.775Z,3.00
2018-11-11T12:32:51.769Z,3.30
2018-11-11T12:33:51.793Z,3.30
2018-11-11T12:34:51.760Z,3.10
2018-11-11T12:35:51.770Z,2.60
2018-11-11T12:36:51.721Z,3.30
2018-11-11T12:37:51.708Z,3.50
2018-11-11T12:38:51.767Z,4.60
2018-11-11T12:39:51.889Z,4.30
2018-11-11T12:40:51.681Z,4.40
2018-11-11T12:41:51.673Z,4.20
2018-11-11T12:42:51.660Z,3.90
2018-11-11T12:43:51.678Z,3.70
2018-11-11T12:44:51.745Z,4.30
2018-11-11T12:45:51.622Z,4.40
2018-11-11T12:46:51.670Z,3.70
2018-11-11T12:47:51.607Z,4.50
2018-11-11T12:48:51.597Z,3.90
2018-11-11T12:49:51.607Z,4.20
2018-11-11T12:50:51.570Z,3.60
2018-11-11T12:51:51.560Z,4.30
2018-11-11T12:52:51.546Z,3.80
2018-11-11T12:53:51.537Z,3.90
2018-11-11T12:54:51.574Z,3.70
2018-11-11T12:55:51.519Z,3.80
2018-11-11T12:56:51.501Z,4.00
2018-11-11T12:57:51.490Z,3.80
2018-11-11T12:58:51.484Z,4.20
2018-11-11T12:59:51.488Z,3.70
2018-11-11T13:00:51.478Z,3.60
2018-11-11T13:01:51.449Z,3.60
2018-11-11T13:02:51.534Z,3.90
2018-11-11T13:03:51.423Z,3.90
2018-11-11T13:04:51.507Z,4.20
2018-11-11T13:05:51.403Z,4.00
2018-11-11T13:06:51.413Z,4.60
2018-11-11T13:07:51.386Z,5.10
2018-11-11T13:08:51.400Z,3.50
2018-11-11T13:09:51.359Z,4.10
2018-11-11T13:10:51.406Z,4.30
2018-11-11T13:11:51.387Z,3.60
2018-11-11T13:12:51.345Z,4.10
2018-11-11T13:13:51.354Z,4.20
2018-11-11T13:14:51.322Z,3.70
2018-11-11T13:15:51.290Z,3.30
2018-11-11T13:16:51.290Z,3.10
2018-11-11T13:17:51.270Z,2.80
2018-11-11T13:18:51.272Z,4.00
2018-11-11T13:19:51.333Z,4.50
2018-11-11T13:20:51.242Z,3.30
2018-11-11T13:21:51.240Z,3.90
2018-11-11T13:22:51.339Z,5.50
2018-11-11T13:23:51.210Z,4.80
2018-11-11T13:24:51.219Z,4.40
2018-11-11T13:25:51.188Z,4.40
2018-11-11T13:26:51.173Z,4.40
2018-11-11T13:27:51.165Z,4.40
2018-11-11T13:28:51.152Z,2.50
2018-11-11T13:29:51.157Z,3.30
2018-11-11T13:30:51.130Z,3.50
2018-11-11T13:31:51.153Z,3.50
2018-11-11T13:32:51.116Z,3.80
2018-11-11T13:33:51.093Z,4.40
2018-11-11T13:34:51.103Z,4.20
2018-11-11T13:35:51.081Z,4.60